sensor_id;sensor_type;location;lat;lon;timestamp;pressure;altitude;pressure_sealevel;temperature
19948;BMP180;10135;50.702;7.276;2022-12-18T06:30:55;100597.00;;;-1.20
19948;BMP180;10135;50.702;7.276;2022-12-18T06:32:56;100610.00;;;-1.20
19948;BMP180;10135;50.702;7.276;2022-12-18T06:34:57;100602.00;;;-1.20
19948;BMP180;10135;50.702;7.276;2022-12-18T06:36:58;100604.00;;;-1.20
19948;BMP180;10135;50.702;7.276;2022-12-18T06:38:59;100610.00;;;-1.20
19948;BMP180;10135;50.702;7.276;2022-12-18T06:41:00;100610.00;;;-1.20
19948;BMP180;10135;50.702;7.276;2022-12-18T06:43:00;100601.00;;;-1.20
19948;BMP180;10135;50.702;7.276;2022-12-18T06:45:01;100596.00;;;-1.20
19948;BMP180;10135;50.702;7.276;2022-12-18T06:47:02;100594.00;;;-1.20
19948;BMP180;10135;50.702;7.276;2022-12-18T06:49:03;100587.00;;;-1.20
19948;BMP180;10135;50.702;7.276;2022-12-18T06:51:04;100592.00;;;-1.20
19948;BMP180;10135;50.702;7.276;2022-12-18T06:53:05;100579.00;;;-1.20
19948;BMP180;10135;50.702;7.276;2022-12-18T06:55:07;100580.00;;;-1.30
19948;BMP180;10135;50.702;7.276;2022-12-18T06:57:08;100580.00;;;-1.30
19948;BMP180;10135;50.702;7.276;2022-12-18T06:59:09;100589.00;;;-1.30
19948;BMP180;10135;50.702;7.276;2022-12-18T07:01:12;100586.00;;;-1.30
19948;BMP180;10135;50.702;7.276;2022-12-18T07:03:13;100573.00;;;-1.30
19948;BMP180;10135;50.702;7.276;2022-12-18T07:05:13;100578.00;;;-1.30
19948;BMP180;10135;50.702;7.276;2022-12-18T07:07:14;100580.00;;;-1.30
19948;BMP180;10135;50.702;7.276;2022-12-18T07:09:15;100590.00;;;-1.30
19948;BMP180;10135;50.702;7.276;2022-12-18T07:11:17;100578.00;;;-1.30
19948;BMP180;10135;50.702;7.276;2022-12-18T07:13:18;100579.00;;;-1.30
19948;BMP180;10135;50.702;7.276;2022-12-18T07:15:18;100579.00;;;-1.30
19948;BMP180;10135;50.702;7.276;2022-12-18T07:17:19;100583.00;;;-1.30
19948;BMP180;10135;50.702;7.276;2022-12-18T07:19:20;100590.00;;;-1.30
19948;BMP180;10135;50.702;7.276;2022-12-18T07:21:21;100588.00;;;-1.30
19948;BMP180;10135;50.702;7.276;2022-12-18T07:23:22;100597.00;;;-1.30
19948;BMP180;10135;50.702;7.276;2022-12-18T07:25:23;100596.00;;;-1.30
19948;BMP180;10135;50.702;7.276;2022-12-18T07:27:24;100597.00;;;-1.20
19948;BMP180;10135;50.702;7.276;2022-12-18T07:29:24;100608.00;;;-1.20
19948;BMP180;10135;50.702;7.276;2022-12-18T07:31:26;100612.00;;;-1.20
19948;BMP180;10135;50.702;7.276;2022-12-18T07:33:26;100611.00;;;-1.20
19948;BMP180;10135;50.702;7.276;2022-12-18T07:35:27;100613.00;;;-1.20
19948;BMP180;10135;50.702;7.276;2022-12-18T07:37:28;100614.00;;;-1.20
19948;BMP180;10135;50.702;7.276;2022-12-18T07:39:28;100606.00;;;-1.20
19948;BMP180;10135;50.702;7.276;2022-12-18T07:41:29;100606.00;;;-1.20
19948;BMP180;10135;50.702;7.276;2022-12-18T07:43:30;100601.00;;;-1.20
19948;BMP180;10135;50.702;7.276;2022-12-18T07:45:31;100591.00;;;-1.20
19948;BMP180;10135;50.702;7.276;2022-12-18T07:47:35;100601.00;;;-1.20
19948;BMP180;10135;50.702;7.276;2022-12-18T07:49:36;100594.00;;;-1.20
19948;BMP180;10135;50.702;7.276;2022-12-18T07:51:37;100586.00;;;-1.20
19948;BMP180;10135;50.702;7.276;2022-12-18T07:53:37;100596.00;;;-1.20
19948;BMP180;10135;50.702;7.276;2022-12-18T07:55:38;100591.00;;;-1.10
19948;BMP180;10135;50.702;7.276;2022-12-18T07:57:39;100580.00;;;-1.10
19948;BMP180;10135;50.702;7.276;2022-12-18T07:59:39;100587.00;;;-1.10
19948;BMP180;10135;50.702;7.276;2022-12-18T08:01:40;100589.00;;;-1.10
19948;BMP180;10135;50.702;7.276;2022-12-18T08:03:41;100591.00;;;-1.10
19948;BMP180;10135;50.702;7.276;2022-12-18T08:05:41;100587.00;;;-1.00
19948;BMP180;10135;50.702;7.276;2022-12-18T08:07:42;100576.00;;;-0.80
19948;BMP180;10135;50.702;7.276;2022-12-18T08:09:43;100578.00;;;-0.70
19948;BMP180;10135;50.702;7.276;2022-12-18T08:11:44;100569.00;;;-0.50
19948;BMP180;10135;50.702;7.276;2022-12-18T08:13:44;100558.00;;;-0.30
19948;BMP180;10135;50.702;7.276;2022-12-18T08:15:45;100552.00;;;0.00
19948;BMP180;10135;50.702;7.276;2022-12-18T08:17:45;100539.00;;;0.20
19948;BMP180;10135;50.702;7.276;2022-12-18T08:19:46;100542.00;;;0.40
19948;BMP180;10135;50.702;7.276;2022-12-18T08:21:47;100524.00;;;0.60
19948;BMP180;10135;50.702;7.276;2022-12-18T08:23:48;100535.00;;;0.80
19948;BMP180;10135;50.702;7.276;2022-12-18T08:25:49;100530.00;;;1.00
19948;BMP180;10135;50.702;7.276;2022-12-18T08:27:51;100514.00;;;1.30
19948;BMP180;10135;50.702;7.276;2022-12-18T08:29:51;100514.00;;;1.50
19948;BMP180;10135;50.702;7.276;2022-12-18T08:31:52;100515.00;;;1.80
19948;BMP180;10135;50.702;7.276;2022-12-18T08:33:54;100519.00;;;1.90
19948;BMP180;10135;50.702;7.276;2022-12-18T08:35:55;100519.00;;;2.20
19948;BMP180;10135;50.702;7.276;2022-12-18T08:37:55;100522.00;;;2.40
19948;BMP180;10135;50.702;7.276;2022-12-18T08:39:56;100525.00;;;2.60
19948;BMP180;10135;50.702;7.276;2022-12-18T08:41:56;100526.00;;;2.80
19948;BMP180;10135;50.702;7.276;2022-12-18T08:44:16;100525.00;;;3.00
19948;BMP180;10135;50.702;7.276;2022-12-18T08:46:42;100513.00;;;3.20
19948;BMP180;10135;50.702;7.276;2022-12-18T08:48:43;100524.00;;;3.30
19948;BMP180;10135;50.702;7.276;2022-12-18T08:50:44;100522.00;;;3.40
19948;BMP180;10135;50.702;7.276;2022-12-18T08:52:53;100521.00;;;3.50
19948;BMP180;10135;50.702;7.276;2022-12-18T08:54:53;100524.00;;;3.50
19948;BMP180;10135;50.702;7.276;2022-12-18T08:56:54;100528.00;;;3.60
19948;BMP180;10135;50.702;7.276;2022-12-18T08:58:56;100530.00;;;3.60
19948;BMP180;10135;50.702;7.276;2022-12-18T09:01:06;100529.00;;;3.60
19948;BMP180;10135;50.702;7.276;2022-12-18T09:03:13;100519.00;;;3.60
19948;BMP180;10135;50.702;7.276;2022-12-18T09:05:15;100523.00;;;3.70
19948;BMP180;10135;50.702;7.276;2022-12-18T09:07:16;100514.00;;;3.60
19948;BMP180;10135;50.702;7.276;2022-12-18T09:09:16;100509.00;;;3.60
19948;BMP180;10135;50.702;7.276;2022-12-18T09:11:24;100499.00;;;3.50
19948;BMP180;10135;50.702;7.276;2022-12-18T09:13:25;100506.00;;;3.50
19948;BMP180;10135;50.702;7.276;2022-12-18T09:15:26;100511.00;;;3.40
19948;BMP180;10135;50.702;7.276;2022-12-18T09:17:26;100506.00;;;3.40
19948;BMP180;10135;50.702;7.276;2022-12-18T09:19:27;100511.00;;;3.40
19948;BMP180;10135;50.702;7.276;2022-12-18T09:21:32;100511.00;;;3.30
19948;BMP180;10135;50.702;7.276;2022-12-18T09:23:33;100509.00;;;3.20
19948;BMP180;10135;50.702;7.276;2022-12-18T09:25:34;100512.00;;;3.10
19948;BMP180;10135;50.702;7.276;2022-12-18T09:27:36;100518.00;;;3.10
19948;BMP180;10135;50.702;7.276;2022-12-18T09:29:36;100523.00;;;3.00
19948;BMP180;10135;50.702;7.276;2022-12-18T09:31:38;100509.00;;;2.90
19948;BMP180;10135;50.702;7.276;2022-12-18T09:33:39;100512.00;;;2.90
19948;BMP180;10135;50.702;7.276;2022-12-18T09:35:42;100510.00;;;2.80
19948;BMP180;10135;50.702;7.276;2022-12-18T09:37:43;100509.00;;;2.70
19948;BMP180;10135;50.702;7.276;2022-12-18T09:39:44;100504.00;;;2.60
19948;BMP180;10135;50.702;7.276;2022-12-18T09:41:53;100501.00;;;2.50
19948;BMP180;10135;50.702;7.276;2022-12-18T09:44:00;100484.00;;;2.50
19948;BMP180;10135;50.702;7.276;2022-12-18T09:46:09;100480.00;;;2.40
19948;BMP180;10135;50.702;7.276;2022-12-18T09:48:21;100471.00;;;2.40
19948;BMP180;10135;50.702;7.276;2022-12-18T09:50:34;100472.00;;;2.40
19948;BMP180;10135;50.702;7.276;2022-12-18T09:52:45;100469.00;;;2.40
19948;BMP180;10135;50.702;7.276;2022-12-18T09:55:00;100465.00;;;2.30
19948;BMP180;10135;50.702;7.276;2022-12-18T09:57:03;100472.00;;;2.30
19948;BMP180;10135;50.702;7.276;2022-12-18T09:59:05;100464.00;;;2.30
19948;BMP180;10135;50.702;7.276;2022-12-18T10:01:17;100466.00;;;2.30
19948;BMP180;10135;50.702;7.276;2022-12-18T10:03:19;100472.00;;;2.30
19948;BMP180;10135;50.702;7.276;2022-12-18T10:05:50;100465.00;;;2.20
19948;BMP180;10135;50.702;7.276;2022-12-18T10:08:16;100457.00;;;2.20
19948;BMP180;10135;50.702;7.276;2022-12-18T10:10:49;100452.00;;;2.20
19948;BMP180;10135;50.702;7.276;2022-12-18T10:14:04;100453.00;;;2.20
19948;BMP180;10135;50.702;7.276;2022-12-18T10:16:17;100452.00;;;2.10
19948;BMP180;10135;50.702;7.276;2022-12-18T10:21:28;100437.00;;;2.10
19948;BMP180;10135;50.702;7.276;2022-12-18T10:24:08;100456.00;;;2.10
19948;BMP180;10135;50.702;7.276;2022-12-18T10:26:12;100453.00;;;2.10
19948;BMP180;10135;50.702;7.276;2022-12-18T10:28:16;100457.00;;;2.10
19948;BMP180;10135;50.702;7.276;2022-12-18T10:30:21;100460.00;;;2.10
19948;BMP180;10135;50.702;7.276;2022-12-18T10:32:26;100467.00;;;2.10
19948;BMP180;10135;50.702;7.276;2022-12-18T10:34:27;100455.00;;;2.10
19948;BMP180;10135;50.702;7.276;2022-12-18T10:36:28;100447.00;;;2.10
19948;BMP180;10135;50.702;7.276;2022-12-18T10:38:33;100447.00;;;2.10
19948;BMP180;10135;50.702;7.276;2022-12-18T10:40:49;100458.00;;;2.10
19948;BMP180;10135;50.702;7.276;2022-12-18T10:43:12;100443.00;;;2.10
19948;BMP180;10135;50.702;7.276;2022-12-18T10:45:16;100439.00;;;2.20
19948;BMP180;10135;50.702;7.276;2022-12-18T10:47:20;100420.00;;;2.20
19948;BMP180;10135;50.702;7.276;2022-12-18T10:49:26;100421.00;;;2.20
19948;BMP180;10135;50.702;7.276;2022-12-18T10:51:36;100424.00;;;2.30
19948;BMP180;10135;50.702;7.276;2022-12-18T10:53:40;100432.00;;;2.30
19948;BMP180;10135;50.702;7.276;2022-12-18T10:55:45;100429.00;;;2.30
19948;BMP180;10135;50.702;7.276;2022-12-18T10:57:46;100430.00;;;2.30
19948;BMP180;10135;50.702;7.276;2022-12-18T10:59:55;100430.00;;;2.30
19948;BMP180;10135;50.702;7.276;2022-12-18T11:01:58;100434.00;;;2.30
19948;BMP180;10135;50.702;7.276;2022-12-18T11:04:08;100422.00;;;2.30
19948;BMP180;10135;50.702;7.276;2022-12-18T11:06:22;100431.00;;;2.30
19948;BMP180;10135;50.702;7.276;2022-12-18T11:08:24;100424.00;;;2.30
19948;BMP180;10135;50.702;7.276;2022-12-18T11:10:37;100434.00;;;2.30
19948;BMP180;10135;50.702;7.276;2022-12-18T11:12:40;100431.00;;;2.30
19948;BMP180;10135;50.702;7.276;2022-12-18T11:14:52;100429.00;;;2.20
19948;BMP180;10135;50.702;7.276;2022-12-18T11:16:56;100426.00;;;2.30
19948;BMP180;10135;50.702;7.276;2022-12-18T11:19:32;100424.00;;;2.20
19948;BMP180;10135;50.702;7.276;2022-12-18T11:21:40;100412.00;;;2.30
19948;BMP180;10135;50.702;7.276;2022-12-18T11:23:50;100407.00;;;2.20
19948;BMP180;10135;50.702;7.276;2022-12-18T11:26:05;100408.00;;;2.20
19948;BMP180;10135;50.702;7.276;2022-12-18T11:29:16;100405.00;;;2.20
19948;BMP180;10135;50.702;7.276;2022-12-18T11:31:26;100407.00;;;2.20
19948;BMP180;10135;50.702;7.276;2022-12-18T11:33:32;100413.00;;;2.20
19948;BMP180;10135;50.702;7.276;2022-12-18T11:35:46;100404.00;;;2.20
19948;BMP180;10135;50.702;7.276;2022-12-18T11:38:10;100400.00;;;2.20
19948;BMP180;10135;50.702;7.276;2022-12-18T11:40:26;100394.00;;;2.20
19948;BMP180;10135;50.702;7.276;2022-12-18T11:42:54;100400.00;;;2.20
19948;BMP180;10135;50.702;7.276;2022-12-18T11:47:37;100406.00;;;2.10
19948;BMP180;10135;50.702;7.276;2022-12-18T11:49:41;100392.00;;;2.20
19948;BMP180;10135;50.702;7.276;2022-12-18T11:52:02;100399.00;;;2.10
19948;BMP180;10135;50.702;7.276;2022-12-18T11:54:14;100401.00;;;2.20
19948;BMP180;10135;50.702;7.276;2022-12-18T11:56:36;100386.00;;;2.20
19948;BMP180;10135;50.702;7.276;2022-12-18T12:01:50;100385.00;;;2.20
19948;BMP180;10135;50.702;7.276;2022-12-18T12:12:23;100375.00;;;2.20
19948;BMP180;10135;50.702;7.276;2022-12-18T12:17:34;100369.00;;;2.20
19948;BMP180;10135;50.702;7.276;2022-12-18T12:19:57;100376.00;;;2.20
19948;BMP180;10135;50.702;7.276;2022-12-18T12:22:47;100365.00;;;2.30
19948;BMP180;10135;50.702;7.276;2022-12-18T12:25:02;100365.00;;;2.30
19948;BMP180;10135;50.702;7.276;2022-12-18T12:30:00;100368.00;;;2.30
19948;BMP180;10135;50.702;7.276;2022-12-18T12:32:34;100350.00;;;2.30
19948;BMP180;10135;50.702;7.276;2022-12-18T12:37:34;100337.00;;;2.30
19948;BMP180;10135;50.702;7.276;2022-12-18T12:39:43;100348.00;;;2.30
19948;BMP180;10135;50.702;7.276;2022-12-18T12:41:46;100351.00;;;2.40
19948;BMP180;10135;50.702;7.276;2022-12-18T12:44:18;100347.00;;;2.40
19948;BMP180;10135;50.702;7.276;2022-12-18T12:46:22;100343.00;;;2.40
19948;BMP180;10135;50.702;7.276;2022-12-18T12:48:33;100340.00;;;2.40
19948;BMP180;10135;50.702;7.276;2022-12-18T12:50:36;100340.00;;;2.40
19948;BMP180;10135;50.702;7.276;2022-12-18T12:52:43;100337.00;;;2.40
19948;BMP180;10135;50.702;7.276;2022-12-18T12:54:45;100333.00;;;2.50
19948;BMP180;10135;50.702;7.276;2022-12-18T12:57:11;100336.00;;;2.50
19948;BMP180;10135;50.702;7.276;2022-12-18T13:01:58;100335.00;;;2.50
19948;BMP180;10135;50.702;7.276;2022-12-18T13:06:47;100330.00;;;2.60
19948;BMP180;10135;50.702;7.276;2022-12-18T13:08:59;100336.00;;;2.60
19948;BMP180;10135;50.702;7.276;2022-12-18T13:11:00;100340.00;;;2.60
19948;BMP180;10135;50.702;7.276;2022-12-18T13:13:20;100345.00;;;2.60
19948;BMP180;10135;50.702;7.276;2022-12-18T13:17:34;100339.00;;;2.70
19948;BMP180;10135;50.702;7.276;2022-12-18T13:19:35;100338.00;;;2.70
19948;BMP180;10135;50.702;7.276;2022-12-18T13:21:36;100343.00;;;2.70
19948;BMP180;10135;50.702;7.276;2022-12-18T13:23:37;100340.00;;;2.70
19948;BMP180;10135;50.702;7.276;2022-12-18T13:25:39;100344.00;;;2.70
19948;BMP180;10135;50.702;7.276;2022-12-18T13:28:02;100350.00;;;2.70
19948;BMP180;10135;50.702;7.276;2022-12-18T13:30:44;100357.00;;;2.80
19948;BMP180;10135;50.702;7.276;2022-12-18T13:32:45;100348.00;;;2.80
19948;BMP180;10135;50.702;7.276;2022-12-18T13:34:46;100347.00;;;2.80
19948;BMP180;10135;50.702;7.276;2022-12-18T13:36:50;100347.00;;;2.80
19948;BMP180;10135;50.702;7.276;2022-12-18T13:41:27;100341.00;;;2.80
19948;BMP180;10135;50.702;7.276;2022-12-18T13:43:45;100357.00;;;2.80
19948;BMP180;10135;50.702;7.276;2022-12-18T13:46:16;100353.00;;;2.80
19948;BMP180;10135;50.702;7.276;2022-12-18T13:48:23;100348.00;;;2.90
19948;BMP180;10135;50.702;7.276;2022-12-18T13:50:25;100342.00;;;2.90
19948;BMP180;10135;50.702;7.276;2022-12-18T13:52:33;100346.00;;;2.80
19948;BMP180;10135;50.702;7.276;2022-12-18T13:54:39;100338.00;;;2.80
19948;BMP180;10135;50.702;7.276;2022-12-18T13:56:46;100345.00;;;2.80
19948;BMP180;10135;50.702;7.276;2022-12-18T13:59:38;100345.00;;;2.90
19948;BMP180;10135;50.702;7.276;2022-12-18T14:01:46;100340.00;;;2.90
19948;BMP180;10135;50.702;7.276;2022-12-18T14:03:47;100334.00;;;2.90
19948;BMP180;10135;50.702;7.276;2022-12-18T14:05:59;100315.00;;;2.90
19948;BMP180;10135;50.702;7.276;2022-12-18T14:08:10;100323.00;;;2.90
19948;BMP180;10135;50.702;7.276;2022-12-18T14:10:15;100323.00;;;2.90
19948;BMP180;10135;50.702;7.276;2022-12-18T14:12:22;100318.00;;;2.90
19948;BMP180;10135;50.702;7.276;2022-12-18T14:14:49;100314.00;;;2.90
19948;BMP180;10135;50.702;7.276;2022-12-18T14:16:52;100320.00;;;2.90
19948;BMP180;10135;50.702;7.276;2022-12-18T14:18:56;100312.00;;;2.90
19948;BMP180;10135;50.702;7.276;2022-12-18T14:21:00;100310.00;;;2.90
19948;BMP180;10135;50.702;7.276;2022-12-18T14:23:02;100310.00;;;2.90
19948;BMP180;10135;50.702;7.276;2022-12-18T14:25:18;100318.00;;;2.80
19948;BMP180;10135;50.702;7.276;2022-12-18T14:27:25;100323.00;;;2.80
19948;BMP180;10135;50.702;7.276;2022-12-18T14:29:29;100326.00;;;2.90
19948;BMP180;10135;50.702;7.276;2022-12-18T14:31:31;100319.00;;;2.90
19948;BMP180;10135;50.702;7.276;2022-12-18T14:33:32;100310.00;;;2.80
19948;BMP180;10135;50.702;7.276;2022-12-18T14:35:39;100309.00;;;2.80
19948;BMP180;10135;50.702;7.276;2022-12-18T14:37:39;100298.00;;;2.80
19948;BMP180;10135;50.702;7.276;2022-12-18T14:39:51;100304.00;;;2.80
19948;BMP180;10135;50.702;7.276;2022-12-18T14:41:52;100305.00;;;2.80
19948;BMP180;10135;50.702;7.276;2022-12-18T14:43:54;100307.00;;;2.80
19948;BMP180;10135;50.702;7.276;2022-12-18T14:45:56;100296.00;;;2.80
19948;BMP180;10135;50.702;7.276;2022-12-18T14:47:59;100306.00;;;2.80
19948;BMP180;10135;50.702;7.276;2022-12-18T14:50:00;100297.00;;;2.80
19948;BMP180;10135;50.702;7.276;2022-12-18T14:52:05;100290.00;;;2.80
19948;BMP180;10135;50.702;7.276;2022-12-18T14:54:17;100301.00;;;2.70
19948;BMP180;10135;50.702;7.276;2022-12-18T14:58:22;100302.00;;;2.70
19948;BMP180;10135;50.702;7.276;2022-12-18T15:00:25;100286.00;;;2.60
19948;BMP180;10135;50.702;7.276;2022-12-18T15:02:28;100292.00;;;2.60
19948;BMP180;10135;50.702;7.276;2022-12-18T15:04:41;100299.00;;;2.60
19948;BMP180;10135;50.702;7.276;2022-12-18T15:06:41;100296.00;;;2.60
19948;BMP180;10135;50.702;7.276;2022-12-18T15:08:43;100290.00;;;2.60
19948;BMP180;10135;50.702;7.276;2022-12-18T15:10:47;100287.00;;;2.60
19948;BMP180;10135;50.702;7.276;2022-12-18T15:12:50;100286.00;;;2.60
19948;BMP180;10135;50.702;7.276;2022-12-18T15:14:51;100286.00;;;2.60
19948;BMP180;10135;50.702;7.276;2022-12-18T15:16:53;100288.00;;;2.50
19948;BMP180;10135;50.702;7.276;2022-12-18T15:18:54;100286.00;;;2.50
19948;BMP180;10135;50.702;7.276;2022-12-18T15:21:00;100289.00;;;2.50
19948;BMP180;10135;50.702;7.276;2022-12-18T15:25:36;100278.00;;;2.50
19948;BMP180;10135;50.702;7.276;2022-12-18T15:27:38;100284.00;;;2.50
19948;BMP180;10135;50.702;7.276;2022-12-18T15:29:39;100279.00;;;2.50
19948;BMP180;10135;50.702;7.276;2022-12-18T15:31:40;100284.00;;;2.50
19948;BMP180;10135;50.702;7.276;2022-12-18T15:34:01;100288.00;;;2.40
19948;BMP180;10135;50.702;7.276;2022-12-18T15:36:15;100288.00;;;2.50
19948;BMP180;10135;50.702;7.276;2022-12-18T15:38:16;100288.00;;;2.50
19948;BMP180;10135;50.702;7.276;2022-12-18T15:40:23;100292.00;;;2.50
19948;BMP180;10135;50.702;7.276;2022-12-18T15:42:24;100290.00;;;2.50
19948;BMP180;10135;50.702;7.276;2022-12-18T15:44:43;100288.00;;;2.50
19948;BMP180;10135;50.702;7.276;2022-12-18T15:46:44;100285.00;;;2.50
19948;BMP180;10135;50.702;7.276;2022-12-18T15:48:51;100288.00;;;2.40
19948;BMP180;10135;50.702;7.276;2022-12-18T15:50:55;100289.00;;;2.50
19948;BMP180;10135;50.702;7.276;2022-12-18T15:52:57;100288.00;;;2.40
19948;BMP180;10135;50.702;7.276;2022-12-18T15:54:58;100286.00;;;2.40
19948;BMP180;10135;50.702;7.276;2022-12-18T15:57:17;100294.00;;;2.40
19948;BMP180;10135;50.702;7.276;2022-12-18T15:59:23;100286.00;;;2.40
19948;BMP180;10135;50.702;7.276;2022-12-18T16:01:28;100282.00;;;2.40
19948;BMP180;10135;50.702;7.276;2022-12-18T16:03:29;100281.00;;;2.40
19948;BMP180;10135;50.702;7.276;2022-12-18T16:05:31;100267.00;;;2.40
19948;BMP180;10135;50.702;7.276;2022-12-18T16:07:31;100269.00;;;2.40
19948;BMP180;10135;50.702;7.276;2022-12-18T16:09:32;100275.00;;;2.30
19948;BMP180;10135;50.702;7.276;2022-12-18T16:11:36;100287.00;;;2.30
19948;BMP180;10135;50.702;7.276;2022-12-18T16:13:40;100274.00;;;2.30
19948;BMP180;10135;50.702;7.276;2022-12-18T16:15:41;100279.00;;;2.30
19948;BMP180;10135;50.702;7.276;2022-12-18T16:17:47;100261.00;;;2.30
19948;BMP180;10135;50.702;7.276;2022-12-18T16:19:48;100265.00;;;2.30
19948;BMP180;10135;50.702;7.276;2022-12-18T16:21:52;100269.00;;;2.30
19948;BMP180;10135;50.702;7.276;2022-12-18T16:23:53;100272.00;;;2.30
19948;BMP180;10135;50.702;7.276;2022-12-18T16:25:53;100261.00;;;2.30
19948;BMP180;10135;50.702;7.276;2022-12-18T16:27:55;100274.00;;;2.30
19948;BMP180;10135;50.702;7.276;2022-12-18T16:29:56;100277.00;;;2.30
19948;BMP180;10135;50.702;7.276;2022-12-18T16:31:59;100266.00;;;2.30
19948;BMP180;10135;50.702;7.276;2022-12-18T16:34:23;100268.00;;;2.20
19948;BMP180;10135;50.702;7.276;2022-12-18T16:36:26;100269.00;;;2.30
19948;BMP180;10135;50.702;7.276;2022-12-18T16:38:26;100270.00;;;2.30
19948;BMP180;10135;50.702;7.276;2022-12-18T16:40:27;100279.00;;;2.30
19948;BMP180;10135;50.702;7.276;2022-12-18T16:42:28;100277.00;;;2.20
19948;BMP180;10135;50.702;7.276;2022-12-18T16:44:28;100278.00;;;2.20
19948;BMP180;10135;50.702;7.276;2022-12-18T16:46:29;100286.00;;;2.20
19948;BMP180;10135;50.702;7.276;2022-12-18T16:48:30;100280.00;;;2.20
19948;BMP180;10135;50.702;7.276;2022-12-18T16:50:31;100279.00;;;2.20
19948;BMP180;10135;50.702;7.276;2022-12-18T16:52:33;100275.00;;;2.20
19948;BMP180;10135;50.702;7.276;2022-12-18T16:54:33;100272.00;;;2.20
19948;BMP180;10135;50.702;7.276;2022-12-18T16:56:36;100271.00;;;2.20
19948;BMP180;10135;50.702;7.276;2022-12-18T16:58:37;100277.00;;;2.20
19948;BMP180;10135;50.702;7.276;2022-12-18T17:00:38;100269.00;;;2.20
19948;BMP180;10135;50.702;7.276;2022-12-18T17:02:38;100270.00;;;2.20
19948;BMP180;10135;50.702;7.276;2022-12-18T17:04:39;100263.00;;;2.20
19948;BMP180;10135;50.702;7.276;2022-12-18T17:06:43;100263.00;;;2.20
19948;BMP180;10135;50.702;7.276;2022-12-18T17:08:44;100271.00;;;2.20
19948;BMP180;10135;50.702;7.276;2022-12-18T17:10:45;100265.00;;;2.20
19948;BMP180;10135;50.702;7.276;2022-12-18T17:12:45;100265.00;;;2.20
19948;BMP180;10135;50.702;7.276;2022-12-18T17:14:46;100263.00;;;2.20
19948;BMP180;10135;50.702;7.276;2022-12-18T17:16:47;100275.00;;;2.20
19948;BMP180;10135;50.702;7.276;2022-12-18T17:18:48;100263.00;;;2.20
19948;BMP180;10135;50.702;7.276;2022-12-18T17:20:49;100268.00;;;2.20
19948;BMP180;10135;50.702;7.276;2022-12-18T17:22:49;100267.00;;;2.20
19948;BMP180;10135;50.702;7.276;2022-12-18T17:24:50;100254.00;;;2.20
19948;BMP180;10135;50.702;7.276;2022-12-18T17:26:50;100250.00;;;2.20
19948;BMP180;10135;50.702;7.276;2022-12-18T17:28:51;100260.00;;;2.20
19948;BMP180;10135;50.702;7.276;2022-12-18T17:30:53;100267.00;;;2.20
19948;BMP180;10135;50.702;7.276;2022-12-18T17:32:54;100272.00;;;2.20
19948;BMP180;10135;50.702;7.276;2022-12-18T17:34:55;100279.00;;;2.20
19948;BMP180;10135;50.702;7.276;2022-12-18T17:36:55;100268.00;;;2.20
19948;BMP180;10135;50.702;7.276;2022-12-18T17:38:59;100246.00;;;2.20
19948;BMP180;10135;50.702;7.276;2022-12-18T17:41:06;100259.00;;;2.20
19948;BMP180;10135;50.702;7.276;2022-12-18T17:43:09;100258.00;;;2.20
19948;BMP180;10135;50.702;7.276;2022-12-18T17:45:10;100260.00;;;2.10
19948;BMP180;10135;50.702;7.276;2022-12-18T17:47:12;100254.00;;;2.10
19948;BMP180;10135;50.702;7.276;2022-12-18T17:49:13;100253.00;;;2.10
19948;BMP180;10135;50.702;7.276;2022-12-18T17:51:16;100246.00;;;2.10
19948;BMP180;10135;50.702;7.276;2022-12-18T17:53:17;100246.00;;;2.10
19948;BMP180;10135;50.702;7.276;2022-12-18T17:55:17;100254.00;;;2.10
19948;BMP180;10135;50.702;7.276;2022-12-18T17:57:18;100241.00;;;2.10
19948;BMP180;10135;50.702;7.276;2022-12-18T17:59:19;100235.00;;;2.00
19948;BMP180;10135;50.702;7.276;2022-12-18T18:01:23;100247.00;;;2.00
19948;BMP180;10135;50.702;7.276;2022-12-18T18:03:24;100248.00;;;2.00
19948;BMP180;10135;50.702;7.276;2022-12-18T18:05:25;100246.00;;;2.00
19948;BMP180;10135;50.702;7.276;2022-12-18T18:07:26;100237.00;;;2.00
19948;BMP180;10135;50.702;7.276;2022-12-18T18:09:27;100230.00;;;2.00
19948;BMP180;10135;50.702;7.276;2022-12-18T18:11:28;100225.00;;;2.00
19948;BMP180;10135;50.702;7.276;2022-12-18T18:13:47;100237.00;;;2.00
19948;BMP180;10135;50.702;7.276;2022-12-18T18:16:04;100231.00;;;2.00
19948;BMP180;10135;50.702;7.276;2022-12-18T18:18:05;100229.00;;;2.00
19948;BMP180;10135;50.702;7.276;2022-12-18T18:20:06;100228.00;;;2.00
19948;BMP180;10135;50.702;7.276;2022-12-18T18:22:07;100218.00;;;2.00
19948;BMP180;10135;50.702;7.276;2022-12-18T18:24:09;100214.00;;;2.00
19948;BMP180;10135;50.702;7.276;2022-12-18T18:26:10;100217.00;;;2.00
19948;BMP180;10135;50.702;7.276;2022-12-18T18:28:11;100218.00;;;2.10
19948;BMP180;10135;50.702;7.276;2022-12-18T18:30:12;100206.00;;;2.10
19948;BMP180;10135;50.702;7.276;2022-12-18T18:32:13;100221.00;;;2.10
19948;BMP180;10135;50.702;7.276;2022-12-18T18:34:20;100214.00;;;2.10
19948;BMP180;10135;50.702;7.276;2022-12-18T18:36:22;100211.00;;;2.10
19948;BMP180;10135;50.702;7.276;2022-12-18T18:38:23;100201.00;;;2.10
19948;BMP180;10135;50.702;7.276;2022-12-18T18:40:24;100215.00;;;2.10
19948;BMP180;10135;50.702;7.276;2022-12-18T18:42:25;100202.00;;;2.10
19948;BMP180;10135;50.702;7.276;2022-12-18T18:44:25;100206.00;;;2.10
19948;BMP180;10135;50.702;7.276;2022-12-18T18:46:26;100198.00;;;2.20
19948;BMP180;10135;50.702;7.276;2022-12-18T18:48:31;100210.00;;;2.20
19948;BMP180;10135;50.702;7.276;2022-12-18T18:50:32;100218.00;;;2.20
19948;BMP180;10135;50.702;7.276;2022-12-18T18:52:32;100209.00;;;2.20
19948;BMP180;10135;50.702;7.276;2022-12-18T18:54:33;100216.00;;;2.20
19948;BMP180;10135;50.702;7.276;2022-12-18T18:56:34;100210.00;;;2.20
19948;BMP180;10135;50.702;7.276;2022-12-18T18:58:34;100207.00;;;2.20
19948;BMP180;10135;50.702;7.276;2022-12-18T19:00:35;100208.00;;;2.20
19948;BMP180;10135;50.702;7.276;2022-12-18T19:02:36;100201.00;;;2.30
19948;BMP180;10135;50.702;7.276;2022-12-18T19:04:36;100217.00;;;2.30
19948;BMP180;10135;50.702;7.276;2022-12-18T19:06:38;100215.00;;;2.30
19948;BMP180;10135;50.702;7.276;2022-12-18T19:08:39;100223.00;;;2.30
19948;BMP180;10135;50.702;7.276;2022-12-18T19:10:40;100215.00;;;2.30
19948;BMP180;10135;50.702;7.276;2022-12-18T19:12:41;100217.00;;;2.30